Time;durP1;ratioP1;P1;durP2;ratioP2;P2;SDS_P1;SDS_P2;PMS_P1;PMS_P2;Temp;Humidity;BMP_temperature;BMP_pressure;BME280_temperature;BME280_humidity;BME280_pressure;Samples;Min_cycle;Max_cycle;Signal;HPM_P1;HPM_P2
2021/04/26 00:01:10;;;;;;;;;;;11.30;55.70;;;;;;4319105;33;20035;-76
2021/04/26 00:03:42;;;;;;;;;;;11.30;55.60;;;;;;4292758;33;37248;-76
2021/04/26 00:06:12;;;;;;;;;;;11.30;55.70;;;;;;4304728;33;40755;-76
2021/04/26 00:08:50;;;;;;;;;;;11.30;55.80;;;;;;4292944;33;20396;-76
2021/04/26 00:11:22;;;;;;;;;;;11.20;55.70;;;;;;4317752;33;44159;-76
2021/04/26 00:13:49;;;;;;;;;;;11.20;55.80;;;;;;4304903;33;43578;-76
2021/04/26 00:16:22;;;;;;;;;;;11.20;55.70;;;;;;4305744;33;20009;-76
2021/04/26 00:18:54;;;;;;;;;;;11.20;55.70;;;;;;4304557;33;43099;-76
2021/04/26 00:21:24;;;;;;;;;;;11.10;55.70;;;;;;4318073;33;20242;-76
2021/04/26 00:23:59;;;;;;;;;;;11.10;55.80;;;;;;4305184;33;20073;-76
2021/04/26 00:26:32;;;;;;;;;;;11.10;55.80;;;;;;4292057;33;44546;-76
2021/04/26 00:29:01;;;;;;;;;;;11.10;55.80;;;;;;4317742;33;40029;-76
2021/04/26 00:31:33;;;;;;;;;;;11.00;55.90;;;;;;4305002;33;20008;-76
2021/04/26 00:34:06;;;;;;;;;;;11.00;56.00;;;;;;4304614;33;44262;-76
2021/04/26 00:36:43;;;;;;;;;;;11.00;56.00;;;;;;4303893;33;43025;-75
2021/04/26 00:39:10;;;;;;;;;;;11.00;56.10;;;;;;4303949;33;39524;-76
2021/04/26 00:41:42;;;;;;;;;;;11.00;56.10;;;;;;4304743;33;20006;-76
2021/04/26 00:44:16;;;;;;;;;;;11.00;56.10;;;;;;4317318;33;43663;-76
2021/04/26 00:46:45;;;;;;;;;;;10.90;56.10;;;;;;4304393;33;34107;-76
2021/04/26 00:49:20;;;;;;;;;;;10.90;56.10;;;;;;4303856;33;45018;-76
2021/04/26 00:51:50;;;;;;;;;;;10.90;56.10;;;;;;4305089;33;20002;-76
2021/04/26 00:54:22;;;;;;;;;;;10.80;56.10;;;;;;4293314;33;19994;-76
2021/04/26 00:56:52;;;;;;;;;;;10.80;56.10;;;;;;4304057;33;37731;-76
2021/04/26 00:59:22;;;;;;;;;;;10.80;56.20;;;;;;4305182;33;20017;-76
2021/04/26 01:01:51;;;;;;;;;;;10.80;56.20;;;;;;4318249;33;20006;-77
2021/04/26 01:04:27;;;;;;;;;;;10.80;56.30;;;;;;4317260;33;24135;-77
2021/04/26 01:06:58;;;;;;;;;;;10.70;56.40;;;;;;4305099;33;20363;-77
2021/04/26 01:09:33;;;;;;;;;;;10.70;56.40;;;;;;4316916;33;43956;-77
2021/04/26 01:12:19;;;;;;;;;;;10.70;56.50;;;;;;4317085;33;36631;-77
2021/04/26 01:15:04;;;;;;;;;;;10.60;56.50;;;;;;4316941;33;44826;-76
2021/04/26 01:17:39;;;;;;;;;;;10.60;56.60;;;;;;4317604;33;20017;-77
2021/04/26 01:20:25;;;;;;;;;;;10.60;56.60;;;;;;4304580;33;20370;-77
2021/04/26 01:23:10;;;;;;;;;;;10.60;56.80;;;;;;4304578;33;20009;-77
2021/04/26 01:25:45;;;;;;;;;;;10.60;56.90;;;;;;4318137;33;20408;-77
2021/04/26 01:28:22;;;;;;;;;;;10.50;57.00;;;;;;4292502;33;20362;-77
2021/04/26 01:31:10;;;;;;;;;;;10.50;57.00;;;;;;4304643;33;20010;-77
2021/04/26 01:33:42;;;;;;;;;;;10.50;57.00;;;;;;4317430;33;20014;-77
2021/04/26 01:36:15;;;;;;;;;;;10.50;57.10;;;;;;4317919;33;20030;-77
2021/04/26 01:38:52;;;;;;;;;;;10.40;57.20;;;;;;4317811;33;20005;-77
2021/04/26 01:41:25;;;;;;;;;;;10.40;57.20;;;;;;4317736;33;20065;-77
2021/04/26 01:44:01;;;;;;;;;;;10.40;57.30;;;;;;4304175;33;20004;-77
2021/04/26 01:46:34;;;;;;;;;;;10.40;57.40;;;;;;4317640;33;20073;-77
2021/04/26 01:49:09;;;;;;;;;;;10.40;57.50;;;;;;4317708;33;20058;-77
2021/04/26 01:51:44;;;;;;;;;;;10.30;57.50;;;;;;4303967;33;20382;-77
2021/04/26 01:54:16;;;;;;;;;;;10.30;57.60;;;;;;4304653;33;20021;-77
2021/04/26 01:56:53;;;;;;;;;;;10.30;57.50;;;;;;4304242;33;20010;-77
2021/04/26 01:59:26;;;;;;;;;;;10.30;57.60;;;;;;4317422;33;20407;-77
2021/04/26 02:01:59;;;;;;;;;;;10.30;57.70;;;;;;4317085;33;20005;-77
2021/04/26 02:04:34;;;;;;;;;;;10.30;57.70;;;;;;4317744;33;20376;-77
2021/04/26 02:07:09;;;;;;;;;;;10.20;57.70;;;;;;4304024;33;20012;-77
2021/04/26 02:09:43;;;;;;;;;;;10.20;57.70;;;;;;4304223;33;20013;-77
2021/04/26 02:12:17;;;;;;;;;;;10.20;57.80;;;;;;4316723;33;27436;-77
2021/04/26 02:14:55;;;;;;;;;;;10.20;57.80;;;;;;4316477;33;35198;-77
2021/04/26 02:17:28;;;;;;;;;;;10.20;57.80;;;;;;4317196;33;20061;-77
2021/04/26 02:20:00;;;;;;;;;;;10.20;58.00;;;;;;4303893;33;23346;-77
2021/04/26 02:22:32;;;;;;;;;;;10.10;57.90;;;;;;4303486;33;29073;-77
2021/04/26 02:25:12;;;;;;;;;;;10.10;58.00;;;;;;4292343;33;20013;-77
2021/04/26 02:27:47;;;;;;;;;;;10.10;58.00;;;;;;4291128;33;42823;-77
2021/04/26 02:30:20;;;;;;;;;;;10.10;58.10;;;;;;4302838;33;41812;-77
2021/04/26 02:32:53;;;;;;;;;;;10.10;58.20;;;;;;4318393;33;20504;-77
2021/04/26 02:35:31;;;;;;;;;;;10.10;58.30;;;;;;4319619;33;25394;-77
2021/04/26 02:38:04;;;;;;;;;;;10.00;58.20;;;;;;4305880;33;39749;-77
2021/04/26 02:40:41;;;;;;;;;;;10.00;58.20;;;;;;4293949;33;27584;-76
2021/04/26 02:43:16;;;;;;;;;;;10.00;58.20;;;;;;4294560;33;27775;-77
2021/04/26 02:45:56;;;;;;;;;;;10.00;58.30;;;;;;4306224;33;30566;-77
2021/04/26 02:48:28;;;;;;;;;;;10.00;58.40;;;;;;4319184;33;34807;-76
2021/04/26 02:51:04;;;;;;;;;;;9.90;58.40;;;;;;4319277;33;26160;-77
2021/04/26 02:53:41;;;;;;;;;;;9.90;58.40;;;;;;4306984;33;20024;-77
2021/04/26 02:56:16;;;;;;;;;;;9.90;58.50;;;;;;4318827;33;40340;-77
2021/04/26 02:58:55;;;;;;;;;;;9.90;58.60;;;;;;4305462;33;42849;-77
2021/04/26 03:01:25;;;;;;;;;;;9.90;58.60;;;;;;4318826;33;36378;-77
2021/04/26 03:03:57;;;;;;;;;;;9.90;58.60;;;;;;4305861;33;38306;-77
2021/04/26 03:06:34;;;;;;;;;;;9.80;58.60;;;;;;4306573;33;20009;-77
2021/04/26 03:09:07;;;;;;;;;;;9.80;58.70;;;;;;4319035;33;29436;-77
2021/04/26 03:11:43;;;;;;;;;;;9.80;58.80;;;;;;4305609;33;35664;-77
2021/04/26 03:14:23;;;;;;;;;;;9.80;58.80;;;;;;4318691;33;36497;-77
2021/04/26 03:16:58;;;;;;;;;;;9.80;58.90;;;;;;4293018;33;40804;-77
2021/04/26 03:19:33;;;;;;;;;;;9.80;59.00;;;;;;4293536;33;26039;-76
2021/04/26 03:22:02;;;;;;;;;;;9.80;59.00;;;;;;4293137;33;38124;-77
2021/04/26 03:24:28;;;;;;;;;;;9.70;59.00;;;;;;4293128;33;43968;-77
2021/04/26 03:26:57;;;;;;;;;;;9.70;59.00;;;;;;4318324;33;44681;-77
2021/04/26 03:29:26;;;;;;;;;;;9.70;59.00;;;;;;4304939;33;44411;-77
2021/04/26 03:31:56;;;;;;;;;;;9.70;59.10;;;;;;4306404;33;20032;-77
2021/04/26 03:34:28;;;;;;;;;;;9.70;59.20;;;;;;4319280;33;20020;-77
2021/04/26 03:36:57;;;;;;;;;;;9.60;59.20;;;;;;4318534;33;39388;-77
2021/04/26 03:39:30;;;;;;;;;;;9.60;59.20;;;;;;4304726;33;47166;-77
2021/04/26 03:42:02;;;;;;;;;;;9.60;59.30;;;;;;4305158;33;42294;-77
2021/04/26 03:44:28;;;;;;;;;;;9.60;59.40;;;;;;4316848;33;43375;-77
2021/04/26 03:46:59;;;;;;;;;;;9.60;59.40;;;;;;4318831;33;20065;-77
2021/04/26 03:49:31;;;;;;;;;;;9.60;59.40;;;;;;4306063;33;20081;-77
2021/04/26 03:52:03;;;;;;;;;;;9.60;59.50;;;;;;4292701;33;37089;-77
2021/04/26 03:54:36;;;;;;;;;;;9.50;59.40;;;;;;4319180;33;20014;-77
2021/04/26 03:57:10;;;;;;;;;;;9.50;59.40;;;;;;4319040;33;20020;-77
2021/04/26 03:59:40;;;;;;;;;;;9.50;59.40;;;;;;4317806;33;39219;-77
2021/04/26 04:02:13;;;;;;;;;;;9.50;59.50;;;;;;4304238;33;44816;-77
2021/04/26 04:04:40;;;;;;;;;;;9.40;59.50;;;;;;4317455;33;42963;-77
2021/04/26 04:07:15;;;;;;;;;;;9.40;59.60;;;;;;4305519;33;20022;-77
2021/04/26 04:09:44;;;;;;;;;;;9.40;59.50;;;;;;4292828;33;28849;-77
2021/04/26 04:12:14;;;;;;;;;;;9.40;60.10;;;;;;4293473;33;20061;-77
2021/04/26 04:14:49;;;;;;;;;;;9.30;59.60;;;;;;4318406;33;20061;-77
2021/04/26 04:17:21;;;;;;;;;;;9.30;59.70;;;;;;4305080;33;24973;-77
2021/04/26 04:19:54;;;;;;;;;;;9.30;59.70;;;;;;4318924;33;20053;-77
2021/04/26 04:22:26;;;;;;;;;;;9.30;59.80;;;;;;4304073;33;44733;-77
2021/04/26 04:24:52;;;;;;;;;;;9.30;59.90;;;;;;4317980;33;39730;-77
2021/04/26 04:27:22;;;;;;;;;;;9.20;59.90;;;;;;4293368;33;20012;-77
2021/04/26 04:29:54;;;;;;;;;;;9.20;59.90;;;;;;4304438;33;20910;-76
2021/04/26 04:32:27;;;;;;;;;;;9.20;59.90;;;;;;4304064;33;33665;-77
2021/04/26 04:34:56;;;;;;;;;;;9.20;60.00;;;;;;4304910;33;29298;-77
2021/04/26 04:37:28;;;;;;;;;;;9.10;59.90;;;;;;4293468;33;20003;-77
2021/04/26 04:40:00;;;;;;;;;;;9.10;60.00;;;;;;4304410;33;40626;-77
2021/04/26 04:42:30;;;;;;;;;;;9.10;60.20;;;;;;4292417;33;22523;-77
2021/04/26 04:45:00;;;;;;;;;;;9.10;60.40;;;;;;4303713;33;43356;-77
2021/04/26 04:47:35;;;;;;;;;;;9.10;60.40;;;;;;4305601;33;20387;-77
2021/04/26 04:50:07;;;;;;;;;;;9.10;60.40;;;;;;4317605;33;38018;-77
2021/04/26 04:52:40;;;;;;;;;;;9.10;60.50;;;;;;4293287;33;20050;-77
2021/04/26 04:55:10;;;;;;;;;;;9.10;60.60;;;;;;4292990;33;20008;-77
2021/04/26 04:57:42;;;;;;;;;;;9.10;60.60;;;;;;4304262;33;44962;-77
2021/04/26 05:00:17;;;;;;;;;;;9.00;60.70;;;;;;4292918;33;20545;-77
2021/04/26 05:02:47;;;;;;;;;;;9.00;60.70;;;;;;4290079;33;20010;-77
2021/04/26 05:05:25;;;;;;;;;;;9.00;60.70;;;;;;4302568;33;37233;-77
2021/04/26 05:07:55;;;;;;;;;;;9.00;60.70;;;;;;4301327;33;43344;-77
2021/04/26 05:10:30;;;;;;;;;;;9.00;60.80;;;;;;4301991;33;20016;-77
2021/04/26 05:12:59;;;;;;;;;;;9.00;60.80;;;;;;4301447;33;43815;-77
2021/04/26 05:15:29;;;;;;;;;;;9.00;61.00;;;;;;4301008;33;43648;-76
2021/04/26 05:18:00;;;;;;;;;;;9.00;61.10;;;;;;4303633;33;20028;-77
2021/04/26 05:20:36;;;;;;;;;;;8.90;61.10;;;;;;4303314;33;20423;-77
2021/04/26 05:23:05;;;;;;;;;;;8.90;61.20;;;;;;4303645;33;20024;-77
2021/04/26 05:25:37;;;;;;;;;;;8.90;62.20;;;;;;4303603;33;20049;-77
2021/04/26 05:28:07;;;;;;;;;;;8.90;61.50;;;;;;4301285;33;34518;-77
2021/04/26 05:30:40;;;;;;;;;;;8.90;61.70;;;;;;4302216;33;20050;-77
2021/04/26 05:33:14;;;;;;;;;;;8.90;61.80;;;;;;4302052;33;20117;-76
2021/04/26 05:35:50;;;;;;;;;;;8.90;62.00;;;;;;4290158;33;20003;-77
2021/04/26 05:38:19;;;;;;;;;;;8.90;61.90;;;;;;4302528;33;31174;-77
2021/04/26 05:40:53;;;;;;;;;;;8.90;62.10;;;;;;4303218;33;20343;-77
2021/04/26 05:43:23;;;;;;;;;;;8.90;62.10;;;;;;4301971;33;42963;-77
2021/04/26 05:45:55;;;;;;;;;;;8.90;62.40;;;;;;4300544;33;37314;-77
2021/04/26 05:48:24;;;;;;;;;;;8.80;62.50;;;;;;4300737;33;35914;-77
2021/04/26 05:50:54;;;;;;;;;;;8.80;62.70;;;;;;4288800;33;39561;-77
2021/04/26 05:53:26;;;;;;;;;;;8.80;62.80;;;;;;4301701;33;20022;-77
2021/04/26 05:55:53;;;;;;;;;;;8.80;62.90;;;;;;4301242;33;20269;-77
2021/04/26 05:58:26;;;;;;;;;;;8.80;63.10;;;;;;4301819;33;40818;-77
2021/04/26 06:00:58;;;;;;;;;;;8.80;63.20;;;;;;4301541;33;42429;-76
2021/04/26 06:03:28;;;;;;;;;;;8.80;63.20;;;;;;4315120;33;42240;-77
2021/04/26 06:05:57;;;;;;;;;;;8.80;63.20;;;;;;4302387;33;44616;-77
2021/04/26 06:08:27;;;;;;;;;;;8.80;63.30;;;;;;4303056;33;32711;-76
2021/04/26 06:10:57;;;;;;;;;;;8.80;63.40;;;;;;4291795;33;20010;-77
2021/04/26 06:13:29;;;;;;;;;;;8.90;63.50;;;;;;4292673;33;20004;-76
2021/04/26 06:15:59;;;;;;;;;;;8.90;63.60;;;;;;4316035;33;39248;-77
2021/04/26 06:18:28;;;;;;;;;;;8.90;63.50;;;;;;4315647;33;43663;-77
2021/04/26 06:21:00;;;;;;;;;;;8.90;63.70;;;;;;4316913;33;20073;-77
2021/04/26 06:23:30;;;;;;;;;;;8.90;63.70;;;;;;4316097;33;45133;-77
2021/04/26 06:26:01;;;;;;;;;;;8.90;63.70;;;;;;4316432;33;34962;-77
2021/04/26 06:28:31;;;;;;;;;;;8.90;63.70;;;;;;4316091;33;35009;-77
2021/04/26 06:31:01;;;;;;;;;;;8.90;63.70;;;;;;4304470;33;20037;-77
2021/04/26 06:33:30;;;;;;;;;;;8.90;63.70;;;;;;4303270;33;44095;-76
2021/04/26 06:36:03;;;;;;;;;;;9.00;64.00;;;;;;4303311;33;25582;-78
2021/04/26 06:38:32;;;;;;;;;;;9.00;64.10;;;;;;4316723;33;21208;-77
2021/04/26 06:41:04;;;;;;;;;;;9.00;64.20;;;;;;4315463;33;43260;-77
2021/04/26 06:43:34;;;;;;;;;;;9.00;64.90;;;;;;4303084;33;43350;-77
2021/04/26 06:46:03;;;;;;;;;;;9.10;64.20;;;;;;4317183;33;20061;-77
2021/04/26 06:48:39;;;;;;;;;;;9.00;64.20;;;;;;4303874;33;20033;-77
2021/04/26 06:51:08;;;;;;;;;;;9.00;64.10;;;;;;4316401;33;33682;-77
2021/04/26 06:53:38;;;;;;;;;;;9.10;64.20;;;;;;4290326;33;46305;-77
2021/04/26 06:56:08;;;;;;;;;;;9.10;64.20;;;;;;4302262;33;44698;-77
2021/04/26 06:58:37;;;;;;;;;;;9.10;64.10;;;;;;4302719;33;44645;-77
2021/04/26 07:01:04;;;;;;;;;;;9.10;64.10;;;;;;4302428;33;36965;-77
2021/04/26 07:03:36;;;;;;;;;;;9.10;64.00;;;;;;4302174;33;40150;-77
2021/04/26 07:06:03;;;;;;;;;;;9.10;64.00;;;;;;4315408;33;42714;-77
2021/04/26 07:08:32;;;;;;;;;;;9.20;64.10;;;;;;4303940;33;20065;-77
2021/04/26 07:11:05;;;;;;;;;;;9.20;64.00;;;;;;4303860;33;20124;-77
2021/04/26 07:13:34;;;;;;;;;;;9.20;64.00;;;;;;4302817;33;38123;-77
2021/04/26 07:16:09;;;;;;;;;;;9.20;64.00;;;;;;4303060;33;20009;-77
2021/04/26 07:18:44;;;;;;;;;;;9.20;64.10;;;;;;4305370;33;20023;-77
2021/04/26 07:21:14;;;;;;;;;;;9.20;64.00;;;;;;4305659;33;41489;-77
2021/04/26 07:23:44;;;;;;;;;;;9.30;64.00;;;;;;4305330;33;44281;-77
2021/04/26 07:26:13;;;;;;;;;;;9.20;64.00;;;;;;4318518;33;38396;-77
2021/04/26 07:28:43;;;;;;;;;;;9.30;64.00;;;;;;4305232;33;44563;-77
2021/04/26 07:31:13;;;;;;;;;;;9.30;64.00;;;;;;4292787;33;42499;-77
2021/04/26 07:33:42;;;;;;;;;;;9.30;64.10;;;;;;4305137;33;44229;-77
2021/04/26 07:36:12;;;;;;;;;;;9.30;64.10;;;;;;4318620;33;32081;-77
2021/04/26 07:38:42;;;;;;;;;;;9.30;64.10;;;;;;4318999;33;20006;-77
2021/04/26 07:41:15;;;;;;;;;;;9.30;64.00;;;;;;4292801;33;40214;-77
2021/04/26 07:43:44;;;;;;;;;;;9.40;64.10;;;;;;4292550;33;43473;-77
2021/04/26 07:46:14;;;;;;;;;;;9.40;64.10;;;;;;4317552;33;44993;-77
2021/04/26 07:48:43;;;;;;;;;;;9.40;64.10;;;;;;4318744;33;28193;-77
2021/04/26 07:51:15;;;;;;;;;;;9.40;64.10;;;;;;4305805;33;20067;-77
2021/04/26 07:53:45;;;;;;;;;;;9.40;64.00;;;;;;4319155;33;20002;-77
2021/04/26 07:56:14;;;;;;;;;;;9.50;64.10;;;;;;4306269;33;20053;-77
2021/04/26 07:58:46;;;;;;;;;;;9.50;64.00;;;;;;4306510;33;20024;-77
2021/04/26 08:01:15;;;;;;;;;;;9.50;64.00;;;;;;4304083;33;46323;-77
2021/04/26 08:03:44;;;;;;;;;;;9.50;63.90;;;;;;4292544;33;40173;-77
2021/04/26 08:06:17;;;;;;;;;;;9.50;63.70;;;;;;4304077;33;44182;-77
2021/04/26 08:08:46;;;;;;;;;;;9.50;63.60;;;;;;4318023;33;40404;-77
2021/04/26 08:11:16;;;;;;;;;;;9.50;63.60;;;;;;4317912;33;39429;-77
2021/04/26 08:13:47;;;;;;;;;;;9.60;63.60;;;;;;4304314;33;31448;-77
2021/04/26 08:16:18;;;;;;;;;;;9.60;63.60;;;;;;4304557;33;33530;-77
2021/04/26 08:18:45;;;;;;;;;;;9.60;63.80;;;;;;4293486;33;20006;-77
2021/04/26 08:21:12;;;;;;;;;;;9.60;63.70;;;;;;4317617;33;28660;-77
2021/04/26 08:23:43;;;;;;;;;;;9.60;63.60;;;;;;4317660;33;43438;-77
2021/04/26 08:26:10;;;;;;;;;;;9.70;63.70;;;;;;4317703;33;42593;-77
2021/04/26 08:28:37;;;;;;;;;;;9.70;63.60;;;;;;4317520;33;42162;-77
2021/04/26 08:31:07;;;;;;;;;;;9.60;63.40;;;;;;4316679;33;39681;-77
2021/04/26 08:33:34;;;;;;;;;;;9.60;63.30;;;;;;4303732;33;44467;-77
2021/04/26 08:36:04;;;;;;;;;;;9.70;63.30;;;;;;4318196;33;20031;-77
2021/04/26 08:38:31;;;;;;;;;;;9.70;63.90;;;;;;4303848;33;42988;-77
2021/04/26 08:40:57;;;;;;;;;;;9.70;63.00;;;;;;4317326;33;42091;-77
2021/04/26 08:43:24;;;;;;;;;;;9.70;62.90;;;;;;4316961;33;39284;-77
2021/04/26 08:45:55;;;;;;;;;;;9.70;62.80;;;;;;4304078;33;32813;-77
2021/04/26 08:48:25;;;;;;;;;;;9.70;62.80;;;;;;4304831;33;22438;-77
2021/04/26 08:51:00;;;;;;;;;;;9.70;62.70;;;;;;4292045;33;40918;-77
2021/04/26 08:53:27;;;;;;;;;;;9.70;62.70;;;;;;4304131;33;45560;-77
2021/04/26 08:55:54;;;;;;;;;;;9.80;62.70;;;;;;4304975;33;20006;-77
2021/04/26 08:58:21;;;;;;;;;;;9.80;62.60;;;;;;4304991;33;20010;-77
2021/04/26 09:00:48;;;;;;;;;;;9.80;62.40;;;;;;4303548;33;44526;-77
2021/04/26 09:03:14;;;;;;;;;;;9.80;62.20;;;;;;4304413;33;20391;-77
2021/04/26 09:05:44;;;;;;;;;;;9.80;62.00;;;;;;4304906;33;20027;-77
2021/04/26 09:08:13;;;;;;;;;;;9.80;61.70;;;;;;4304154;33;20387;-77
2021/04/26 09:10:47;;;;;;;;;;;9.80;61.50;;;;;;4317986;33;20069;-77
2021/04/26 09:13:22;;;;;;;;;;;9.80;61.50;;;;;;4293134;33;20013;-77
2021/04/26 09:15:53;;;;;;;;;;;9.90;61.30;;;;;;4304574;33;20010;-77
2021/04/26 09:18:20;;;;;;;;;;;9.90;61.20;;;;;;4305135;33;20077;-77
2021/04/26 09:20:46;;;;;;;;;;;9.90;61.00;;;;;;4318076;33;20020;-77
2021/04/26 09:23:16;;;;;;;;;;;9.90;60.80;;;;;;4304936;33;20079;-77
2021/04/26 09:25:45;;;;;;;;;;;9.90;60.60;;;;;;4304582;33;20081;-77
2021/04/26 09:28:13;;;;;;;;;;;9.90;60.30;;;;;;4304549;33;20020;-77
2021/04/26 09:30:49;;;;;;;;;;;9.90;59.90;;;;;;4304346;33;20109;-77
2021/04/26 09:33:33;;;;;;;;;;;9.90;59.80;;;;;;4304836;33;20342;-77
2021/04/26 09:36:12;;;;;;;;;;;9.90;59.60;;;;;;4318026;33;20112;-77
2021/04/26 09:38:44;;;;;;;;;;;9.90;59.70;;;;;;4317871;33;20061;-77
2021/04/26 09:41:23;;;;;;;;;;;9.90;59.60;;;;;;4304834;33;20014;-77
2021/04/26 09:44:22;;;;;;;;;;;10.00;59.40;;;;;;4304552;33;20087;-77
2021/04/26 09:46:51;;;;;;;;;;;10.00;59.10;;;;;;4304705;33;20433;-77
2021/04/26 09:49:22;;;;;;;;;;;10.00;59.10;;;;;;4304292;33;20058;-77
2021/04/26 09:51:59;;;;;;;;;;;10.00;58.90;;;;;;4304712;33;20128;-77
2021/04/26 09:54:34;;;;;;;;;;;10.00;58.80;;;;;;4304305;33;20073;-78
2021/04/26 09:57:07;;;;;;;;;;;10.10;58.60;;;;;;4317272;33;20014;-77
2021/04/26 09:59:39;;;;;;;;;;;10.10;58.60;;;;;;4316267;33;35094;-77
2021/04/26 10:02:10;;;;;;;;;;;10.10;58.50;;;;;;4303306;33;26649;-77
2021/04/26 10:04:41;;;;;;;;;;;10.10;58.50;;;;;;4316982;33;22109;-77
2021/04/26 10:07:17;;;;;;;;;;;10.10;58.40;;;;;;4292412;33;20014;-77
2021/04/26 10:09:47;;;;;;;;;;;10.10;58.10;;;;;;4303381;33;43842;-77
2021/04/26 10:12:23;;;;;;;;;;;10.10;58.10;;;;;;4303513;33;36032;-77
2021/04/26 10:14:55;;;;;;;;;;;10.20;58.10;;;;;;4316517;33;36447;-77
2021/04/26 10:17:46;;;;;;;;;;;10.20;57.90;;;;;;4304038;33;20095;-77
2021/04/26 10:20:31;;;;;;;;;;;10.20;57.90;;;;;;4316670;33;27208;-77
2021/04/26 10:23:07;;;;;;;;;;;10.20;57.90;;;;;;4303199;33;44130;-77
2021/04/26 10:25:41;;;;;;;;;;;10.20;57.70;;;;;;4291832;33;19998;-77
2021/04/26 10:28:50;;;;;;;;;;;10.20;57.60;;;;;;4290843;33;46590;-77
2021/04/26 10:31:23;;;;;;;;;;;10.30;57.60;;;;;;4290020;33;20046;-77
2021/04/26 10:33:59;;;;;;;;;;;10.30;57.40;;;;;;4317337;33;20006;-77
2021/04/26 10:36:42;;;;;;;;;;;10.40;57.50;;;;;;4316186;33;40901;-77
2021/04/26 10:39:14;;;;;;;;;;;10.30;57.40;;;;;;4316174;33;37736;-77
2021/04/26 10:41:48;;;;;;;;;;;10.40;57.30;;;;;;4302851;33;39231;-77
2021/04/26 10:44:35;;;;;;;;;;;10.40;57.20;;;;;;4302881;33;35719;-78
2021/04/26 10:47:18;;;;;;;;;;;10.40;57.10;;;;;;4316997;33;20014;-77
2021/04/26 10:50:07;;;;;;;;;;;10.40;57.10;;;;;;4303968;33;20006;-77
2021/04/26 10:52:43;;;;;;;;;;;10.40;57.20;;;;;;4304107;33;20006;-77
2021/04/26 10:55:13;;;;;;;;;;;10.50;57.30;;;;;;4319945;33;20006;-77
2021/04/26 10:57:51;;;;;;;;;;;10.60;57.20;;;;;;4319528;33;20075;-77
2021/04/26 11:00:26;;;;;;;;;;;10.60;57.10;;;;;;4319673;33;20023;-78
2021/04/26 11:03:01;;;;;;;;;;;10.60;57.00;;;;;;4306818;33;20010;-77
2021/04/26 11:05:29;;;;;;;;;;;10.60;56.90;;;;;;4306852;33;20023;-77
2021/04/26 11:10:37;;;;;;;;;;;10.70;56.70;;;;;;4306093;33;20002;-77
2021/04/26 11:13:23;;;;;;;;;;;10.70;56.60;;;;;;4318614;33;40424;-77
2021/04/26 11:16:30;;;;;;;;;;;10.70;56.50;;;;;;4305235;33;44382;-77
2021/04/26 11:18:59;;;;;;;;;;;10.70;56.40;;;;;;4276612;33;20016;-77
2021/04/26 11:21:47;;;;;;;;;;;10.70;56.40;;;;;;4276106;33;20448;-77
2021/04/26 11:24:24;;;;;;;;;;;10.70;56.30;;;;;;4295515;33;20032;-77
2021/04/26 11:27:13;;;;;;;;;;;10.80;56.20;;;;;;4318777;33;20396;-77
2021/04/26 11:29:40;;;;;;;;;;;10.80;56.20;;;;;;4319738;33;20133;-77
2021/04/26 11:32:10;;;;;;;;;;;10.80;56.00;;;;;;4319531;33;20001;-77
2021/04/26 11:34:43;;;;;;;;;;;10.80;55.90;;;;;;4318932;33;20043;-78
2021/04/26 11:37:10;;;;;;;;;;;10.90;55.90;;;;;;4305956;33;20073;-77
2021/04/26 11:39:40;;;;;;;;;;;10.90;55.90;;;;;;4294034;33;19998;-77
2021/04/26 11:42:13;;;;;;;;;;;10.90;55.90;;;;;;4319019;33;20010;-77
2021/04/26 11:44:40;;;;;;;;;;;10.90;55.70;;;;;;4319360;33;20090;-77
2021/04/26 11:47:13;;;;;;;;;;;11.00;55.50;;;;;;4319395;33;20010;-77
2021/04/26 11:50:12;;;;;;;;;;;11.00;55.50;;;;;;4306756;33;20024;-77
2021/04/26 11:52:38;;;;;;;;;;;11.00;55.50;;;;;;4299070;33;20028;-77
2021/04/26 11:55:08;;;;;;;;;;;11.10;55.50;;;;;;4318061;33;43974;-77
2021/04/26 11:57:54;;;;;;;;;;;11.10;55.50;;;;;;4304589;33;32638;-77
2021/04/26 12:00:25;;;;;;;;;;;11.10;55.40;;;;;;4304931;33;43448;-77
2021/04/26 12:02:54;;;;;;;;;;;11.20;55.40;;;;;;4304517;33;43734;-77
2021/04/26 12:05:22;;;;;;;;;;;11.20;55.50;;;;;;4304041;33;38993;-77
2021/04/26 12:07:54;;;;;;;;;;;11.20;55.40;;;;;;4318567;33;20021;-77
2021/04/26 12:10:40;;;;;;;;;;;11.20;55.40;;;;;;4292789;33;31155;-78
2021/04/26 12:13:09;;;;;;;;;;;11.30;55.50;;;;;;4318119;33;39766;-77
2021/04/26 12:15:41;;;;;;;;;;;11.30;55.50;;;;;;4317164;33;44738;-77
2021/04/26 12:18:13;;;;;;;;;;;11.30;55.50;;;;;;4317809;33;39095;-77
2021/04/26 12:20:45;;;;;;;;;;;11.30;55.40;;;;;;4318967;33;20079;-77
2021/04/26 12:23:17;;;;;;;;;;;11.40;55.50;;;;;;4304809;33;28810;-77
2021/04/26 12:25:49;;;;;;;;;;;11.40;55.60;;;;;;4318978;33;19999;-77
2021/04/26 12:28:18;;;;;;;;;;;11.50;55.40;;;;;;4317910;33;33348;-77
2021/04/26 12:30:50;;;;;;;;;;;11.50;55.40;;;;;;4318870;33;20017;-77
2021/04/26 12:33:30;;;;;;;;;;;11.50;55.20;;;;;;4305647;33;20024;-77
2021/04/26 12:36:01;;;;;;;;;;;11.50;55.20;;;;;;4317730;33;39150;-77
2021/04/26 12:38:36;;;;;;;;;;;11.60;55.20;;;;;;4318375;33;20010;-77
2021/04/26 12:41:12;;;;;;;;;;;11.60;55.20;;;;;;4292000;33;45060;-77
2021/04/26 12:43:45;;;;;;;;;;;11.60;55.10;;;;;;4317856;33;27431;-77
2021/04/26 12:46:15;;;;;;;;;;;11.70;55.00;;;;;;4304406;33;39508;-77
2021/04/26 12:48:47;;;;;;;;;;;11.70;55.00;;;;;;4318383;33;20095;-77
2021/04/26 12:51:31;;;;;;;;;;;11.70;55.00;;;;;;4318523;33;20009;-77
2021/04/26 12:54:08;;;;;;;;;;;11.80;55.00;;;;;;4304022;33;43689;-77
2021/04/26 12:56:38;;;;;;;;;;;11.80;54.80;;;;;;4317192;33;42416;-76
2021/04/26 12:59:07;;;;;;;;;;;11.80;54.80;;;;;;4303877;33;39577;-76
2021/04/26 13:01:34;;;;;;;;;;;11.80;54.80;;;;;;4304611;33;20108;-76
2021/04/26 13:04:06;;;;;;;;;;;11.90;54.70;;;;;;4316786;33;44002;-76
2021/04/26 13:06:43;;;;;;;;;;;11.90;54.70;;;;;;4317030;33;44722;-76
2021/04/26 13:09:13;;;;;;;;;;;11.90;54.50;;;;;;4304940;33;20005;-76
2021/04/26 13:11:49;;;;;;;;;;;12.00;54.70;;;;;;4305043;33;20010;-77
2021/04/26 13:14:19;;;;;;;;;;;12.00;54.70;;;;;;4318107;33;20019;-76
2021/04/26 13:16:56;;;;;;;;;;;12.10;54.70;;;;;;4304808;33;20024;-76
2021/04/26 13:19:32;;;;;;;;;;;12.10;54.60;;;;;;4304798;33;20017;-76
2021/04/26 13:22:07;;;;;;;;;;;12.20;54.60;;;;;;4304964;33;20057;-76
2021/04/26 13:24:56;;;;;;;;;;;12.20;54.50;;;;;;4305253;33;20055;-76
2021/04/26 13:27:31;;;;;;;;;;;12.20;54.40;;;;;;4318004;33;20003;-76
2021/04/26 13:30:03;;;;;;;;;;;12.30;54.40;;;;;;4304662;33;20061;-76
2021/04/26 13:32:36;;;;;;;;;;;12.30;54.30;;;;;;4304790;33;19998;-76
2021/04/26 13:35:09;;;;;;;;;;;12.40;54.40;;;;;;4304718;33;20010;-76
2021/04/26 13:37:35;;;;;;;;;;;12.40;54.50;;;;;;4304749;33;20065;-76
2021/04/26 13:40:08;;;;;;;;;;;12.40;54.40;;;;;;4292136;33;20049;-77
2021/04/26 13:42:37;;;;;;;;;;;12.50;54.10;;;;;;4304754;33;20335;-76
2021/04/26 13:45:12;;;;;;;;;;;12.50;54.10;;;;;;4304265;33;32538;-76
2021/04/26 13:47:42;;;;;;;;;;;12.50;54.00;;;;;;4291231;33;41346;-76
2021/04/26 13:50:12;;;;;;;;;;;12.60;53.80;;;;;;4304138;33;20062;-76
2021/04/26 13:52:44;;;;;;;;;;;12.60;54.00;;;;;;4304383;33;20054;-76
2021/04/26 13:55:14;;;;;;;;;;;12.60;53.90;;;;;;4317458;33;20002;-76
2021/04/26 13:57:44;;;;;;;;;;;12.70;54.00;;;;;;4292093;33;20057;-76
2021/04/26 14:00:16;;;;;;;;;;;12.70;53.70;;;;;;4304468;33;20083;-76
2021/04/26 14:02:46;;;;;;;;;;;12.80;53.50;;;;;;4290429;33;43988;-76
2021/04/26 14:05:16;;;;;;;;;;;12.80;53.60;;;;;;4316318;33;37063;-77
2021/04/26 14:07:49;;;;;;;;;;;12.80;53.40;;;;;;4317031;33;20024;-76
2021/04/26 14:10:19;;;;;;;;;;;12.90;53.20;;;;;;4292384;33;20008;-76
2021/04/26 14:12:51;;;;;;;;;;;12.90;53.30;;;;;;4317523;33;20038;-77
2021/04/26 14:15:26;;;;;;;;;;;12.90;52.80;;;;;;4317445;33;20081;-77
2021/04/26 14:17:55;;;;;;;;;;;13.00;53.00;;;;;;4316508;33;32575;-77
2021/04/26 14:20:28;;;;;;;;;;;13.00;53.10;;;;;;4303687;33;20020;-77
2021/04/26 14:23:00;;;;;;;;;;;13.10;53.50;;;;;;4304523;33;20077;-76
2021/04/26 14:25:30;;;;;;;;;;;13.10;52.90;;;;;;4303595;33;29346;-77
2021/04/26 14:28:02;;;;;;;;;;;13.10;52.80;;;;;;4316766;33;20026;-77
2021/04/26 14:30:35;;;;;;;;;;;13.20;52.70;;;;;;4317312;33;20051;-77
2021/04/26 14:33:07;;;;;;;;;;;13.20;52.40;;;;;;4302688;33;45495;-77
2021/04/26 14:35:41;;;;;;;;;;;13.30;52.50;;;;;;4303067;33;42711;-77
2021/04/26 14:38:15;;;;;;;;;;;13.30;52.20;;;;;;4304194;33;20434;-77
2021/04/26 14:40:48;;;;;;;;;;;13.30;52.20;;;;;;4291604;33;19998;-78
2021/04/26 14:43:18;;;;;;;;;;;13.40;52.00;;;;;;4303996;33;20047;-77
2021/04/26 14:45:51;;;;;;;;;;;13.40;51.70;;;;;;4316219;33;25149;-77
2021/04/26 14:48:25;;;;;;;;;;;13.40;51.50;;;;;;4303735;33;20002;-77
2021/04/26 14:50:58;;;;;;;;;;;13.50;51.50;;;;;;4302658;33;43341;-77
2021/04/26 14:53:31;;;;;;;;;;;13.50;51.20;;;;;;4317350;33;20443;-77
2021/04/26 14:56:00;;;;;;;;;;;13.50;51.10;;;;;;4315894;33;43973;-77
2021/04/26 14:58:35;;;;;;;;;;;13.50;51.20;;;;;;4316815;33;20008;-77